createdAt,value
2022-08-14T00:00:40.726Z,23.85
2022-08-14T00:15:43.631Z,23.83
2022-08-14T00:30:24.450Z,23.69
2022-08-14T00:45:15.472Z,23.73
2022-08-14T01:00:34.294Z,23.76
2022-08-14T01:15:04.300Z,23.60
2022-08-14T01:30:00.638Z,23.53
2022-08-14T01:44:49.908Z,23.48
2022-08-14T01:59:38.793Z,23.33
2022-08-14T02:14:32.233Z,23.19
2022-08-14T02:44:13.000Z,22.86
2022-08-14T02:59:05.473Z,22.68
2022-08-14T03:28:46.918Z,22.42
2022-08-14T03:43:37.101Z,21.91
2022-08-14T03:58:36.660Z,21.56
2022-08-14T04:13:20.593Z,21.26
2022-08-14T04:28:11.078Z,20.94
2022-08-14T04:43:20.901Z,20.83
2022-08-14T04:58:21.983Z,20.90
2022-08-14T05:13:15.702Z,21.04
2022-08-14T05:28:11.574Z,21.12
2022-08-14T05:43:07.472Z,21.14
2022-08-14T05:58:00.270Z,21.28
2022-08-14T06:12:56.555Z,21.59
2022-08-14T06:27:45.473Z,21.87
2022-08-14T06:42:37.528Z,22.21
2022-08-14T06:57:36.069Z,22.70
2022-08-14T07:12:35.999Z,23.18
2022-08-14T07:27:25.637Z,23.57
2022-08-14T07:42:19.983Z,24.12
2022-08-14T07:57:12.162Z,24.68
2022-08-14T08:12:09.272Z,25.10
2022-08-14T08:27:04.427Z,25.57
2022-08-14T08:41:57.295Z,26.02
2022-08-14T08:56:52.111Z,26.57
2022-08-14T09:11:43.250Z,27.08
2022-08-14T09:26:37.296Z,27.42
2022-08-14T09:42:20.543Z,27.86
2022-08-14T09:56:51.624Z,28.42
2022-08-14T10:11:43.390Z,28.84
2022-08-14T10:26:33.132Z,29.09
2022-08-14T10:41:31.831Z,29.50
2022-08-14T10:56:21.484Z,29.85
2022-08-14T11:11:14.330Z,30.24
2022-08-14T11:26:07.553Z,30.73
2022-08-14T11:41:00.492Z,31.06
2022-08-14T11:55:54.452Z,31.59
2022-08-14T12:10:49.154Z,32.08
2022-08-14T12:25:41.697Z,32.48
2022-08-14T12:40:35.304Z,32.65
2022-08-14T12:55:32.552Z,32.80
2022-08-14T13:10:47.853Z,33.11
2022-08-14T13:25:15.662Z,33.39
2022-08-14T13:40:07.619Z,33.50
2022-08-14T13:55:00.642Z,33.82
2022-08-14T14:09:53.316Z,34.11
2022-08-14T14:24:45.417Z,33.95
2022-08-14T14:40:50.691Z,33.69
2022-08-14T14:54:31.448Z,33.32
2022-08-14T15:09:37.898Z,32.91
2022-08-14T15:24:28.449Z,32.56
2022-08-14T15:54:11.259Z,32.14
2022-08-14T16:09:03.764Z,32.10
2022-08-14T16:23:55.801Z,31.88
2022-08-14T16:38:48.399Z,31.66
2022-08-14T16:53:40.510Z,31.57
2022-08-14T17:08:46.018Z,31.36
2022-08-14T17:23:29.917Z,31.21
2022-08-14T17:38:38.475Z,30.98
2022-08-14T17:53:09.599Z,30.52
2022-08-14T18:08:33.825Z,30.20
2022-08-14T18:22:52.459Z,29.85
2022-08-14T18:37:55.833Z,29.53
2022-08-14T18:52:35.998Z,29.24
2022-08-14T19:07:28.601Z,29.00
2022-08-14T19:22:29.536Z,28.82
2022-08-14T19:37:12.153Z,28.54
2022-08-14T19:52:03.189Z,28.23
2022-08-14T20:06:55.225Z,28.08
2022-08-14T20:22:00.758Z,27.88
2022-08-14T20:36:37.198Z,27.67
2022-08-14T20:51:59.034Z,27.51
2022-08-14T21:07:25.118Z,27.41
2022-08-14T21:21:41.434Z,27.15
2022-08-14T21:36:30.804Z,27.04
2022-08-14T21:51:56.057Z,26.85
2022-08-14T22:06:12.417Z,26.71
2022-08-14T22:21:05.710Z,26.52
2022-08-14T22:35:56.160Z,26.44
2022-08-14T22:50:49.201Z,26.34
2022-08-14T23:05:52.567Z,26.30
2022-08-14T23:20:36.367Z,26.15
2022-08-14T23:35:33.016Z,26.02
2022-08-14T23:50:34.617Z,25.94
